createdAt,value
2023-09-22T00:07:30.512Z,18.20
2023-09-22T00:22:35.068Z,17.90
2023-09-22T00:37:41.432Z,17.80
2023-09-22T00:52:46.197Z,17.60
2023-09-22T01:07:50.935Z,17.50
2023-09-22T01:22:59.254Z,17.50
2023-09-22T01:38:14.160Z,17.30
2023-09-22T01:53:18.801Z,17.60
2023-09-22T02:08:23.524Z,17.10
2023-09-22T02:23:29.063Z,17.10
2023-09-22T02:38:33.692Z,17.30
2023-09-22T02:53:38.312Z,16.90
2023-09-22T03:08:43.102Z,17.30
2023-09-22T03:23:50.054Z,17.20
2023-09-22T03:38:55.347Z,16.90
2023-09-22T03:53:59.917Z,17.30
2023-09-22T04:09:04.722Z,17.00
2023-09-22T04:24:10.464Z,16.90
2023-09-22T04:39:15.721Z,17.00
2023-09-22T04:54:20.507Z,17.10
2023-09-22T05:09:44.272Z,17.10
2023-09-22T05:24:49.225Z,17.00
2023-09-22T05:39:54.634Z,17.10
2023-09-22T05:54:59.523Z,17.60
2023-09-22T06:10:06.858Z,17.70
2023-09-22T06:25:14.857Z,17.70
2023-09-22T06:40:39.112Z,17.80
2023-09-22T06:55:43.759Z,17.60
2023-09-22T07:10:48.905Z,17.70
2023-09-22T07:26:03.967Z,17.70
2023-09-22T07:41:09.020Z,17.70
2023-09-22T07:56:14.386Z,18.00
2023-09-22T08:11:19.448Z,18.10
2023-09-22T08:26:25.250Z,17.80
2023-09-22T08:41:33.333Z,17.50
2023-09-22T08:56:38.511Z,17.20
2023-09-22T09:11:59.682Z,17.10
2023-09-22T09:27:18.784Z,17.60
2023-09-22T09:42:25.361Z,17.60
2023-09-22T09:57:32.054Z,17.60
2023-09-22T10:12:37.269Z,17.10
2023-09-22T10:28:02.515Z,17.00
2023-09-22T10:43:09.038Z,16.50
2023-09-22T10:58:15.947Z,17.00
2023-09-22T11:13:20.978Z,17.10
2023-09-22T11:28:27.528Z,17.70
2023-09-22T11:43:32.561Z,17.20
2023-09-22T11:58:37.375Z,17.00
2023-09-22T12:13:44.662Z,17.10
2023-09-22T12:28:51.055Z,17.90
2023-09-22T12:43:56.279Z,17.40
2023-09-22T12:59:01.188Z,17.30
2023-09-22T13:14:07.016Z,17.60
2023-09-22T13:29:12.951Z,17.80
2023-09-22T13:44:17.673Z,18.40
2023-09-22T13:59:22.552Z,18.30
2023-09-22T14:14:28.198Z,19.10
2023-09-22T14:29:33.194Z,20.80
2023-09-22T14:44:38.016Z,19.00
2023-09-22T14:59:42.723Z,19.70
2023-09-22T15:14:47.293Z,22.20
2023-09-22T15:29:53.174Z,22.30
2023-09-22T15:44:57.738Z,21.20
2023-09-22T16:00:02.388Z,22.40
2023-09-22T16:15:12.007Z,22.40
2023-09-22T16:30:17.572Z,21.60
2023-09-22T16:45:22.335Z,20.70
2023-09-22T17:00:32.199Z,20.20
2023-09-22T17:15:41.642Z,19.60
2023-09-22T17:30:48.722Z,19.20
2023-09-22T17:46:01.709Z,18.60
2023-09-22T18:01:08.133Z,18.60
2023-09-22T18:16:30.418Z,18.40
2023-09-22T18:31:35.456Z,18.30
2023-09-22T18:46:41.398Z,18.30
2023-09-22T19:01:46.435Z,18.30
2023-09-22T19:16:51.267Z,18.30
2023-09-22T19:31:56.808Z,18.10
2023-09-22T19:47:01.754Z,18.30
2023-09-22T20:02:06.664Z,18.00
2023-09-22T20:17:11.519Z,17.90
2023-09-22T20:32:16.386Z,17.80
2023-09-22T20:47:21.306Z,17.60
2023-09-22T21:02:25.898Z,17.40
2023-09-22T21:17:30.690Z,17.50
2023-09-22T21:32:35.358Z,17.30
2023-09-22T21:47:40.056Z,17.20
2023-09-22T22:02:44.907Z,16.90
2023-09-22T22:17:50.558Z,17.00
2023-09-22T22:32:55.690Z,17.10
2023-09-22T22:48:03.039Z,16.90
2023-09-22T23:03:09.410Z,16.70
2023-09-22T23:18:17.610Z,16.70
2023-09-22T23:33:24.956Z,16.70
2023-09-22T23:48:32.895Z,16.70
